Bonnard, Canada
Current Conditions -  °F | °C
As of 3:00 PM on Sunday 25 Jan 2015 (Local Time) from CYRJ Reporting Station
Blowing Snow Blowing Snow  
Wind Chill: -17°   Ceiling: Unl
Heat Index:   Visibility: 25mi
Dew Point: -9°   Wind: 17mph
Humidity: 56%   Direction: 310°NW
Pressure: 29.68"   Gusts: 30mph
Location:  50.73°N, 71.02°W
Report Text: CYRJ 252000Z 31015G26KT 25SM DRSN FEW035 FEW040 M16/M23 A2968 RMK CU1SC1 CU TR PRESRR SLP070
Loading
Personal Weather Stations






























Interactive Weather Map New forecast layout! Learn more

10-Day Weather Forecast

Advertisements
Track Severe Weather on mobile